sensor_id;sensor_type;location;lat;lon;timestamp;pressure;altitude;pressure_sealevel;temperature;humidity
68654;BME280;55636;51.108;13.622;2024-01-15T00:00:35;98499.03;;;2.20;52.54
68654;BME280;55636;51.108;13.622;2024-01-15T00:01:42;98500.91;;;2.19;52.75
68654;BME280;55636;51.108;13.622;2024-01-15T00:02:45;98496.53;;;2.18;52.50
68654;BME280;55636;51.108;13.622;2024-01-15T00:03:47;98499.03;;;2.20;52.53
68654;BME280;55636;51.108;13.622;2024-01-15T00:04:50;98492.75;;;2.19;52.61
68654;BME280;55636;51.108;13.622;2024-01-15T00:05:52;98502.56;;;2.20;52.62
68654;BME280;55636;51.108;13.622;2024-01-15T00:06:55;98493.81;;;2.18;52.63
68654;BME280;55636;51.108;13.622;2024-01-15T00:07:57;98491.69;;;2.20;52.67
68654;BME280;55636;51.108;13.622;2024-01-15T00:09:00;98497.94;;;2.21;52.40
68654;BME280;55636;51.108;13.622;2024-01-15T00:10:02;98489.75;;;2.21;52.54
68654;BME280;55636;51.108;13.622;2024-01-15T00:11:05;98486.22;;;2.20;52.45
68654;BME280;55636;51.108;13.622;2024-01-15T00:12:07;98490.03;;;2.19;52.40
68654;BME280;55636;51.108;13.622;2024-01-15T00:13:10;98490.28;;;2.18;52.63
68654;BME280;55636;51.108;13.622;2024-01-15T00:14:12;98488.38;;;2.18;52.53
68654;BME280;55636;51.108;13.622;2024-01-15T00:15:16;98488.38;;;2.18;52.45
68654;BME280;55636;51.108;13.622;2024-01-15T00:16:19;98478.56;;;2.17;52.48
68654;BME280;55636;51.108;13.622;2024-01-15T00:17:21;98485.09;;;2.16;52.51
68654;BME280;55636;51.108;13.622;2024-01-15T00:18:23;98484.03;;;2.17;52.48
68654;BME280;55636;51.108;13.622;2024-01-15T00:19:26;98478.56;;;2.17;52.58
68654;BME280;55636;51.108;13.622;2024-01-15T00:20:29;98491.09;;;2.18;52.63
68654;BME280;55636;51.108;13.622;2024-01-15T00:21:32;98479.63;;;2.16;52.52
68654;BME280;55636;51.108;13.622;2024-01-15T00:22:34;98485.91;;;2.17;52.66
68654;BME280;55636;51.108;13.622;2024-01-15T00:23:43;98492.19;;;2.17;52.54
68654;BME280;55636;51.108;13.622;2024-01-15T00:24:48;98467.69;;;2.17;52.66
68654;BME280;55636;51.108;13.622;2024-01-15T00:25:51;98485.66;;;2.18;52.64
68654;BME280;55636;51.108;13.622;2024-01-15T00:26:53;98475.59;;;2.19;52.54
68654;BME280;55636;51.108;13.622;2024-01-15T00:27:56;98466.81;;;2.17;52.71
68654;BME280;55636;51.108;13.622;2024-01-15T00:28:58;98466.03;;;2.16;52.51
68654;BME280;55636;51.108;13.622;2024-01-15T00:30:01;98467.91;;;2.16;52.64
68654;BME280;55636;51.108;13.622;2024-01-15T00:31:04;98461.38;;;2.17;52.69
68654;BME280;55636;51.108;13.622;2024-01-15T00:32:07;98463.56;;;2.15;52.65
68654;BME280;55636;51.108;13.622;2024-01-15T00:33:09;98467.09;;;2.15;52.59
68654;BME280;55636;51.108;13.622;2024-01-15T00:34:14;98465.44;;;2.14;52.63
68654;BME280;55636;51.108;13.622;2024-01-15T00:35:17;98453.47;;;2.15;52.69
68654;BME280;55636;51.108;13.622;2024-01-15T00:36:19;98474.44;;;2.15;52.53
68654;BME280;55636;51.108;13.622;2024-01-15T00:37:21;98471.94;;;2.13;52.70
68654;BME280;55636;51.108;13.622;2024-01-15T00:38:24;98475.78;;;2.12;52.79
68654;BME280;55636;51.108;13.622;2024-01-15T00:39:26;98473.06;;;2.12;52.80
68654;BME280;55636;51.108;13.622;2024-01-15T00:40:29;98474.13;;;2.11;52.71
68654;BME280;55636;51.108;13.622;2024-01-15T00:41:31;98458.59;;;2.12;52.77
68654;BME280;55636;51.108;13.622;2024-01-15T00:42:34;98462.97;;;2.13;52.74
68654;BME280;55636;51.108;13.622;2024-01-15T00:43:36;98462.72;;;2.14;52.77
68654;BME280;55636;51.108;13.622;2024-01-15T00:44:38;98455.59;;;2.13;52.81
68654;BME280;55636;51.108;13.622;2024-01-15T00:45:41;98454.53;;;2.14;52.61
68654;BME280;55636;51.108;13.622;2024-01-15T00:46:44;98453.13;;;2.12;52.78
68654;BME280;55636;51.108;13.622;2024-01-15T00:47:48;98452.88;;;2.13;52.67
68654;BME280;55636;51.108;13.622;2024-01-15T00:48:50;98460.25;;;2.13;52.66
68654;BME280;55636;51.108;13.622;2024-01-15T00:49:53;98448.53;;;2.12;52.60
68654;BME280;55636;51.108;13.622;2024-01-15T00:50:55;98454.47;;;2.09;52.69
68654;BME280;55636;51.108;13.622;2024-01-15T00:51:58;98457.44;;;2.07;52.53
68654;BME280;55636;51.108;13.622;2024-01-15T00:53:00;98443.00;;;2.07;52.64
68654;BME280;55636;51.108;13.622;2024-01-15T00:54:03;98446.56;;;2.07;52.53
68654;BME280;55636;51.108;13.622;2024-01-15T00:55:05;98453.66;;;2.08;52.56
68654;BME280;55636;51.108;13.622;2024-01-15T00:56:08;98449.53;;;2.06;52.53
68654;BME280;55636;51.108;13.622;2024-01-15T00:57:10;98440.28;;;2.07;52.51
68654;BME280;55636;51.108;13.622;2024-01-15T00:58:12;98442.44;;;2.05;52.47
68654;BME280;55636;51.108;13.622;2024-01-15T00:59:15;98436.50;;;2.08;52.59
68654;BME280;55636;51.108;13.622;2024-01-15T01:00:17;98438.38;;;2.07;52.55
68654;BME280;55636;51.108;13.622;2024-01-15T01:01:20;98446.56;;;2.07;52.66
68654;BME280;55636;51.108;13.622;2024-01-15T01:02:23;98435.59;;;2.02;52.65
68654;BME280;55636;51.108;13.622;2024-01-15T01:03:25;98438.56;;;2.01;52.55
68654;BME280;55636;51.108;13.622;2024-01-15T01:04:27;98444.81;;;2.01;52.50
68654;BME280;55636;51.108;13.622;2024-01-15T01:05:30;98446.22;;;2.04;52.62
68654;BME280;55636;51.108;13.622;2024-01-15T01:06:32;98440.78;;;2.04;52.60
68654;BME280;55636;51.108;13.622;2024-01-15T01:07:36;98444.34;;;2.04;52.57
68654;BME280;55636;51.108;13.622;2024-01-15T01:08:39;98431.22;;;2.01;52.54
68654;BME280;55636;51.108;13.622;2024-01-15T01:09:41;98419.16;;;1.97;52.45
68654;BME280;55636;51.108;13.622;2024-01-15T01:10:44;98433.63;;;1.98;52.55
68654;BME280;55636;51.108;13.622;2024-01-15T01:11:46;98435.25;;;1.99;52.51
68654;BME280;55636;51.108;13.622;2024-01-15T01:12:48;98432.53;;;1.99;52.51
68654;BME280;55636;51.108;13.622;2024-01-15T01:13:51;98435.78;;;1.96;52.72
68654;BME280;55636;51.108;13.622;2024-01-15T01:14:53;98431.13;;;1.96;52.48
68654;BME280;55636;51.108;13.622;2024-01-15T01:15:55;98423.22;;;1.94;52.65
68654;BME280;55636;51.108;13.622;2024-01-15T01:16:58;98421.56;;;1.93;52.59
68654;BME280;55636;51.108;13.622;2024-01-15T01:18:00;98417.78;;;1.94;52.58
68654;BME280;55636;51.108;13.622;2024-01-15T01:19:03;98424.81;;;1.90;52.71
68654;BME280;55636;51.108;13.622;2024-01-15T01:20:06;98425.38;;;1.92;52.72
68654;BME280;55636;51.108;13.622;2024-01-15T01:21:10;98413.91;;;1.90;52.75
68654;BME280;55636;51.108;13.622;2024-01-15T01:22:13;98425.63;;;1.91;52.59
68654;BME280;55636;51.108;13.622;2024-01-15T01:23:15;98418.53;;;1.90;52.72
68654;BME280;55636;51.108;13.622;2024-01-15T01:24:18;98414.16;;;1.89;52.66
68654;BME280;55636;51.108;13.622;2024-01-15T01:25:20;98417.22;;;1.92;52.62
68654;BME280;55636;51.108;13.622;2024-01-15T01:26:22;98399.22;;;1.91;52.65
68654;BME280;55636;51.108;13.622;2024-01-15T01:27:25;98415.56;;;1.91;52.74
68654;BME280;55636;51.108;13.622;2024-01-15T01:28:28;98402.75;;;1.92;52.47
68654;BME280;55636;51.108;13.622;2024-01-15T01:29:30;98406.56;;;1.91;52.50
68654;BME280;55636;51.108;13.622;2024-01-15T01:30:33;98415.22;;;1.88;52.62
68654;BME280;55636;51.108;13.622;2024-01-15T01:31:35;98399.97;;;1.87;52.73
68654;BME280;55636;51.108;13.622;2024-01-15T01:32:38;98405.41;;;1.87;52.65
68654;BME280;55636;51.108;13.622;2024-01-15T01:33:40;98402.69;;;1.87;52.66
68654;BME280;55636;51.108;13.622;2024-01-15T01:34:43;98407.31;;;1.86;52.74
68654;BME280;55636;51.108;13.622;2024-01-15T01:35:45;98401.63;;;1.88;52.55
68654;BME280;55636;51.108;13.622;2024-01-15T01:36:48;98397.50;;;1.85;52.61
68654;BME280;55636;51.108;13.622;2024-01-15T01:37:51;98397.25;;;1.87;52.64
68654;BME280;55636;51.108;13.622;2024-01-15T01:38:53;98389.91;;;1.87;52.55
68654;BME280;55636;51.108;13.622;2024-01-15T01:39:56;98400.22;;;1.85;52.58
68654;BME280;55636;51.108;13.622;2024-01-15T01:40:58;98397.00;;;1.88;52.64
68654;BME280;55636;51.108;13.622;2024-01-15T01:42:00;98400.22;;;1.85;52.62
68654;BME280;55636;51.108;13.622;2024-01-15T01:43:04;98411.13;;;1.85;52.66
68654;BME280;55636;51.108;13.622;2024-01-15T01:44:07;98407.84;;;1.83;52.71
68654;BME280;55636;51.108;13.622;2024-01-15T01:45:09;98412.19;;;1.84;52.67
68654;BME280;55636;51.108;13.622;2024-01-15T01:46:12;98412.19;;;1.84;52.51
68654;BME280;55636;51.108;13.622;2024-01-15T01:47:14;98406.72;;;1.84;52.71
68654;BME280;55636;51.108;13.622;2024-01-15T01:48:17;98410.03;;;1.86;52.71
68654;BME280;55636;51.108;13.622;2024-01-15T01:49:19;98416.56;;;1.85;52.62
68654;BME280;55636;51.108;13.622;2024-01-15T01:50:22;98408.41;;;1.85;52.62
68654;BME280;55636;51.108;13.622;2024-01-15T01:51:25;98408.13;;;1.87;52.62
68654;BME280;55636;51.108;13.622;2024-01-15T01:52:27;98410.31;;;1.85;52.63
68654;BME280;55636;51.108;13.622;2024-01-15T01:53:31;98408.41;;;1.85;52.58
68654;BME280;55636;51.108;13.622;2024-01-15T01:54:35;98409.47;;;1.84;52.65
68654;BME280;55636;51.108;13.622;2024-01-15T01:55:38;98406.19;;;1.82;52.65
68654;BME280;55636;51.108;13.622;2024-01-15T01:56:41;98407.84;;;1.83;52.46
68654;BME280;55636;51.108;13.622;2024-01-15T01:57:43;98405.66;;;1.85;52.49
68654;BME280;55636;51.108;13.622;2024-01-15T01:58:47;98397.75;;;1.84;52.56
68654;BME280;55636;51.108;13.622;2024-01-15T01:59:50;98401.81;;;1.81;52.58
68654;BME280;55636;51.108;13.622;2024-01-15T02:00:53;98403.38;;;1.77;52.58
68654;BME280;55636;51.108;13.622;2024-01-15T02:01:56;98404.44;;;1.76;52.66
68654;BME280;55636;51.108;13.622;2024-01-15T02:02:59;98396.53;;;1.74;52.63
68654;BME280;55636;51.108;13.622;2024-01-15T02:04:03;98398.19;;;1.75;52.55
68654;BME280;55636;51.108;13.622;2024-01-15T02:05:06;98389.19;;;1.75;52.49
68654;BME280;55636;51.108;13.622;2024-01-15T02:06:08;98402.81;;;1.75;52.44
68654;BME280;55636;51.108;13.622;2024-01-15T02:07:11;98394.63;;;1.75;52.50
68654;BME280;55636;51.108;13.622;2024-01-15T02:08:14;98391.09;;;1.74;52.65
68654;BME280;55636;51.108;13.622;2024-01-15T02:09:20;98392.16;;;1.73;52.61
68654;BME280;55636;51.108;13.622;2024-01-15T02:10:22;98389.19;;;1.75;52.59
68654;BME280;55636;51.108;13.622;2024-01-15T02:11:24;98396.28;;;1.76;52.44
68654;BME280;55636;51.108;13.622;2024-01-15T02:12:27;98383.66;;;1.70;52.50
68654;BME280;55636;51.108;13.622;2024-01-15T02:13:29;98388.31;;;1.69;52.39
68654;BME280;55636;51.108;13.622;2024-01-15T02:14:32;98395.63;;;1.69;52.52
68654;BME280;55636;51.108;13.622;2024-01-15T02:15:34;98388.03;;;1.71;52.53
68654;BME280;55636;51.108;13.622;2024-01-15T02:16:36;98392.44;;;1.72;52.58
68654;BME280;55636;51.108;13.622;2024-01-15T02:18:02;98394.06;;;1.73;52.53
68654;BME280;55636;51.108;13.622;2024-01-15T02:19:06;98391.34;;;1.73;52.54
68654;BME280;55636;51.108;13.622;2024-01-15T02:20:08;98382.59;;;1.71;52.42
68654;BME280;55636;51.108;13.622;2024-01-15T02:21:11;98387.47;;;1.69;52.41
68654;BME280;55636;51.108;13.622;2024-01-15T02:22:14;98381.78;;;1.70;52.40
68654;BME280;55636;51.108;13.622;2024-01-15T02:23:16;98382.00;;;1.69;52.39
68654;BME280;55636;51.108;13.622;2024-01-15T02:24:19;98380.13;;;1.69;52.54
68654;BME280;55636;51.108;13.622;2024-01-15T02:25:21;98382.00;;;1.69;52.50
68654;BME280;55636;51.108;13.622;2024-01-15T02:26:23;98379.28;;;1.69;52.44
68654;BME280;55636;51.108;13.622;2024-01-15T02:27:26;98377.97;;;1.71;52.36
68654;BME280;55636;51.108;13.622;2024-01-15T02:28:28;98383.41;;;1.71;52.58
68654;BME280;55636;51.108;13.622;2024-01-15T02:29:31;98383.13;;;1.68;52.53
68654;BME280;55636;51.108;13.622;2024-01-15T02:30:37;98376.34;;;1.70;52.42
68654;BME280;55636;51.108;13.622;2024-01-15T02:31:40;98381.47;;;1.67;52.33
68654;BME280;55636;51.108;13.622;2024-01-15T02:32:42;98374.38;;;1.66;52.44
68654;BME280;55636;51.108;13.622;2024-01-15T02:33:45;98367.84;;;1.67;52.48
68654;BME280;55636;51.108;13.622;2024-01-15T02:34:50;98368.91;;;1.66;52.59
68654;BME280;55636;51.108;13.622;2024-01-15T02:35:53;98377.91;;;1.66;52.50
68654;BME280;55636;51.108;13.622;2024-01-15T02:36:55;98359.69;;;1.67;52.42
68654;BME280;55636;51.108;13.622;2024-01-15T02:37:58;98355.56;;;1.64;52.59
68654;BME280;55636;51.108;13.622;2024-01-15T02:39:00;98368.59;;;1.62;52.47
68654;BME280;55636;51.108;13.622;2024-01-15T02:40:03;98366.97;;;1.61;52.56
68654;BME280;55636;51.108;13.622;2024-01-15T02:41:05;98366.72;;;1.63;52.58
68654;BME280;55636;51.108;13.622;2024-01-15T02:42:07;98365.59;;;1.64;52.50
68654;BME280;55636;51.108;13.622;2024-01-15T02:43:10;98361.53;;;1.61;52.52
68654;BME280;55636;51.108;13.622;2024-01-15T02:44:12;98359.63;;;1.62;52.49
68654;BME280;55636;51.108;13.622;2024-01-15T02:45:14;98360.16;;;1.64;52.50
68654;BME280;55636;51.108;13.622;2024-01-15T02:46:17;98352.00;;;1.64;52.54
68654;BME280;55636;51.108;13.622;2024-01-15T02:47:19;98362.59;;;1.60;52.47
68654;BME280;55636;51.108;13.622;2024-01-15T02:48:22;98351.13;;;1.58;52.48
68654;BME280;55636;51.108;13.622;2024-01-15T02:49:24;98350.03;;;1.59;52.67
68654;BME280;55636;51.108;13.622;2024-01-15T02:50:27;98347.84;;;1.56;52.43
68654;BME280;55636;51.108;13.622;2024-01-15T02:51:29;98345.94;;;1.56;52.63
68654;BME280;55636;51.108;13.622;2024-01-15T02:52:32;98349.47;;;1.57;52.54
68654;BME280;55636;51.108;13.622;2024-01-15T02:53:36;98358.22;;;1.59;52.59
68654;BME280;55636;51.108;13.622;2024-01-15T02:54:38;98361.19;;;1.57;52.50
68654;BME280;55636;51.108;13.622;2024-01-15T02:55:41;98339.41;;;1.57;52.51
68654;BME280;55636;51.108;13.622;2024-01-15T02:56:43;98349.97;;;1.54;52.57
68654;BME280;55636;51.108;13.622;2024-01-15T02:57:45;98354.34;;;1.55;52.54
68654;BME280;55636;51.108;13.622;2024-01-15T02:58:48;98351.28;;;1.51;52.59
68654;BME280;55636;51.108;13.622;2024-01-15T02:59:50;98349.16;;;1.53;52.67
68654;BME280;55636;51.108;13.622;2024-01-15T03:00:52;98346.44;;;1.53;52.72
68654;BME280;55636;51.108;13.622;2024-01-15T03:01:55;98351.88;;;1.53;52.70
68654;BME280;55636;51.108;13.622;2024-01-15T03:02:57;98344.19;;;1.50;52.66
68654;BME280;55636;51.108;13.622;2024-01-15T03:04:00;98351.56;;;1.50;52.62
68654;BME280;55636;51.108;13.622;2024-01-15T03:05:02;98345.03;;;1.51;52.76
68654;BME280;55636;51.108;13.622;2024-01-15T03:06:05;98346.66;;;1.52;52.63
68654;BME280;55636;51.108;13.622;2024-01-15T03:07:07;98359.78;;;1.55;52.72
68654;BME280;55636;51.108;13.622;2024-01-15T03:08:10;98349.72;;;1.55;52.66
68654;BME280;55636;51.108;13.622;2024-01-15T03:09:12;98350.78;;;1.54;52.76
68654;BME280;55636;51.108;13.622;2024-01-15T03:10:14;98342.06;;;1.52;52.64
68654;BME280;55636;51.108;13.622;2024-01-15T03:11:17;98346.91;;;1.50;52.65
68654;BME280;55636;51.108;13.622;2024-01-15T03:12:19;98344.78;;;1.52;52.47
68654;BME280;55636;51.108;13.622;2024-01-15T03:13:22;98339.59;;;1.51;52.67
68654;BME280;55636;51.108;13.622;2024-01-15T03:14:24;98341.00;;;1.53;52.65
68654;BME280;55636;51.108;13.622;2024-01-15T03:15:28;98348.06;;;1.54;52.52
68654;BME280;55636;51.108;13.622;2024-01-15T03:16:30;98345.03;;;1.51;52.47
68654;BME280;55636;51.108;13.622;2024-01-15T03:17:33;98344.19;;;1.50;52.36
68654;BME280;55636;51.108;13.622;2024-01-15T03:18:35;98354.84;;;1.52;52.51
68654;BME280;55636;51.108;13.622;2024-01-15T03:19:38;98345.84;;;1.51;52.38
68654;BME280;55636;51.108;13.622;2024-01-15T03:20:40;98342.53;;;1.49;52.40
68654;BME280;55636;51.108;13.622;2024-01-15T03:21:43;98339.28;;;1.47;52.49
68654;BME280;55636;51.108;13.622;2024-01-15T03:22:46;98346.38;;;1.48;52.30
68654;BME280;55636;51.108;13.622;2024-01-15T03:23:48;98324.59;;;1.48;52.38
68654;BME280;55636;51.108;13.622;2024-01-15T03:24:52;98337.88;;;1.44;52.37
68654;BME280;55636;51.108;13.622;2024-01-15T03:25:54;98346.59;;;1.47;52.38
68654;BME280;55636;51.108;13.622;2024-01-15T03:26:57;98336.81;;;1.46;52.33
68654;BME280;55636;51.108;13.622;2024-01-15T03:27:59;98346.03;;;1.44;52.39
68654;BME280;55636;51.108;13.622;2024-01-15T03:29:01;98348.25;;;1.48;52.32
68654;BME280;55636;51.108;13.622;2024-01-15T03:30:04;98345.19;;;1.44;52.36
68654;BME280;55636;51.108;13.622;2024-01-15T03:31:07;98350.63;;;1.44;52.23
68654;BME280;55636;51.108;13.622;2024-01-15T03:32:10;98349.56;;;1.45;52.18
68654;BME280;55636;51.108;13.622;2024-01-15T03:33:12;98352.88;;;1.47;52.40
68654;BME280;55636;51.108;13.622;2024-01-15T03:34:14;98357.47;;;1.47;52.27
68654;BME280;55636;51.108;13.622;2024-01-15T03:35:17;98362.69;;;1.48;52.34
68654;BME280;55636;51.108;13.622;2024-01-15T03:36:19;98358.31;;;1.47;52.25
68654;BME280;55636;51.108;13.622;2024-01-15T03:37:22;98348.50;;;1.46;52.15
68654;BME280;55636;51.108;13.622;2024-01-15T03:38:26;98365.34;;;1.43;52.05
68654;BME280;55636;51.108;13.622;2024-01-15T03:39:29;98356.06;;;1.44;52.21
68654;BME280;55636;51.108;13.622;2024-01-15T03:40:31;98353.13;;;1.46;52.09
68654;BME280;55636;51.108;13.622;2024-01-15T03:41:34;98349.81;;;1.43;52.12
68654;BME280;55636;51.108;13.622;2024-01-15T03:42:36;98355.00;;;1.45;52.11
68654;BME280;55636;51.108;13.622;2024-01-15T03:43:39;98365.91;;;1.45;52.10
68654;BME280;55636;51.108;13.622;2024-01-15T03:44:42;98346.84;;;1.45;52.21
68654;BME280;55636;51.108;13.622;2024-01-15T03:45:44;98359.38;;;1.46;52.10
68654;BME280;55636;51.108;13.622;2024-01-15T03:46:46;98370.84;;;1.48;52.27
68654;BME280;55636;51.108;13.622;2024-01-15T03:47:49;98366.47;;;1.47;52.22
68654;BME280;55636;51.108;13.622;2024-01-15T03:48:51;98361.03;;;1.47;52.16
68654;BME280;55636;51.108;13.622;2024-01-15T03:49:54;98373.56;;;1.48;52.37
68654;BME280;55636;51.108;13.622;2024-01-15T03:50:56;98361.84;;;1.48;52.38
68654;BME280;55636;51.108;13.622;2024-01-15T03:51:59;98358.06;;;1.49;52.37
68654;BME280;55636;51.108;13.622;2024-01-15T03:53:01;98370.59;;;1.50;52.37
68654;BME280;55636;51.108;13.622;2024-01-15T03:54:04;98359.97;;;1.48;52.41
68654;BME280;55636;51.108;13.622;2024-01-15T03:55:06;98361.59;;;1.49;52.39
68654;BME280;55636;51.108;13.622;2024-01-15T03:56:09;98358.06;;;1.49;52.37
68654;BME280;55636;51.108;13.622;2024-01-15T03:57:12;98355.59;;;1.47;52.50
68654;BME280;55636;51.108;13.622;2024-01-15T03:58:15;98359.38;;;1.46;52.53
68654;BME280;55636;51.108;13.622;2024-01-15T03:59:17;98353.13;;;1.46;52.56
68654;BME280;55636;51.108;13.622;2024-01-15T04:00:20;98354.19;;;1.44;52.41
68654;BME280;55636;51.108;13.622;2024-01-15T04:01:22;98350.06;;;1.42;52.49
68654;BME280;55636;51.108;13.622;2024-01-15T04:02:25;98358.50;;;1.40;52.66
68654;BME280;55636;51.108;13.622;2024-01-15T04:03:27;98359.31;;;1.41;52.46
68654;BME280;55636;51.108;13.622;2024-01-15T04:04:30;98351.66;;;1.38;52.67
68654;BME280;55636;51.108;13.622;2024-01-15T04:05:32;98341.03;;;1.36;52.46
68654;BME280;55636;51.108;13.622;2024-01-15T04:06:35;98354.84;;;1.35;52.39
68654;BME280;55636;51.108;13.622;2024-01-15T04:07:37;98347.72;;;1.29;52.47
68654;BME280;55636;51.108;13.622;2024-01-15T04:08:39;98354.56;;;1.31;52.60
68654;BME280;55636;51.108;13.622;2024-01-15T04:09:42;98364.84;;;1.29;52.52
68654;BME280;55636;51.108;13.622;2024-01-15T04:10:44;98363.19;;;1.28;52.50
68654;BME280;55636;51.108;13.622;2024-01-15T04:11:46;98352.31;;;1.28;52.50
68654;BME280;55636;51.108;13.622;2024-01-15T04:12:49;98358.81;;;1.27;52.60
68654;BME280;55636;51.108;13.622;2024-01-15T04:13:52;98346.06;;;1.27;52.58
68654;BME280;55636;51.108;13.622;2024-01-15T04:14:54;98363.19;;;1.28;52.42
68654;BME280;55636;51.108;13.622;2024-01-15T04:15:56;98347.72;;;1.29;52.53
68654;BME280;55636;51.108;13.622;2024-01-15T04:16:59;98346.63;;;1.30;52.47
68654;BME280;55636;51.108;13.622;2024-01-15T04:18:02;98342.28;;;1.29;52.53
68654;BME280;55636;51.108;13.622;2024-01-15T04:19:04;98347.94;;;1.27;52.53
68654;BME280;55636;51.108;13.622;2024-01-15T04:20:07;98356.94;;;1.27;52.40
68654;BME280;55636;51.108;13.622;2024-01-15T04:21:10;98344.66;;;1.25;52.62
68654;BME280;55636;51.108;13.622;2024-01-15T04:22:12;98356.94;;;1.27;52.50
68654;BME280;55636;51.108;13.622;2024-01-15T04:23:15;98360.72;;;1.26;52.54
68654;BME280;55636;51.108;13.622;2024-01-15T04:24:17;98352.22;;;1.23;52.51
68654;BME280;55636;51.108;13.622;2024-01-15T04:25:20;98353.00;;;1.18;52.53
68654;BME280;55636;51.108;13.622;2024-01-15T04:26:22;98344.31;;;1.21;52.31
68654;BME280;55636;51.108;13.622;2024-01-15T04:27:25;98360.06;;;1.19;52.42
68654;BME280;55636;51.108;13.622;2024-01-15T04:28:27;98329.84;;;1.16;52.40
68654;BME280;55636;51.108;13.622;2024-01-15T04:29:29;98349.13;;;1.14;52.30
68654;BME280;55636;51.108;13.622;2024-01-15T04:30:32;98348.03;;;1.15;52.32
68654;BME280;55636;51.108;13.622;2024-01-15T04:31:34;98353.47;;;1.15;52.43
68654;BME280;55636;51.108;13.622;2024-01-15T04:32:37;98337.16;;;1.15;52.27
68654;BME280;55636;51.108;13.622;2024-01-15T04:33:39;98343.91;;;1.13;52.19
68654;BME280;55636;51.108;13.622;2024-01-15T04:34:42;98337.66;;;1.12;52.29
68654;BME280;55636;51.108;13.622;2024-01-15T04:35:45;98350.09;;;1.08;52.03
68654;BME280;55636;51.108;13.622;2024-01-15T04:36:48;98345.22;;;1.10;52.37
68654;BME280;55636;51.108;13.622;2024-01-15T04:37:50;98326.34;;;1.03;52.12
68654;BME280;55636;51.108;13.622;2024-01-15T04:38:53;98344.56;;;1.03;52.15
68654;BME280;55636;51.108;13.622;2024-01-15T04:39:55;98347.03;;;1.04;52.00
68654;BME280;55636;51.108;13.622;2024-01-15T04:40:59;98343.72;;;1.02;52.12
68654;BME280;55636;51.108;13.622;2024-01-15T04:42:02;98357.03;;;0.99;52.21
68654;BME280;55636;51.108;13.622;2024-01-15T04:43:05;98344.84;;;1.01;52.28
68654;BME280;55636;51.108;13.622;2024-01-15T04:44:07;98357.03;;;0.99;52.15
68654;BME280;55636;51.108;13.622;2024-01-15T04:45:09;98366.34;;;1.03;52.20
68654;BME280;55636;51.108;13.622;2024-01-15T04:46:12;98361.63;;;0.98;52.15
68654;BME280;55636;51.108;13.622;2024-01-15T04:47:14;98368.72;;;0.99;51.97
68654;BME280;55636;51.108;13.622;2024-01-15T04:48:17;98364.09;;;1.00;52.07
68654;BME280;55636;51.108;13.622;2024-01-15T04:49:19;98357.84;;;0.99;52.17
68654;BME280;55636;51.108;13.622;2024-01-15T04:50:22;98360.56;;;0.99;52.13
68654;BME280;55636;51.108;13.622;2024-01-15T04:51:25;98374.41;;;0.98;52.02
68654;BME280;55636;51.108;13.622;2024-01-15T04:52:27;98349.34;;;0.96;51.96
68654;BME280;55636;51.108;13.622;2024-01-15T04:53:29;98372.16;;;0.94;52.05
68654;BME280;55636;51.108;13.622;2024-01-15T04:54:32;98364.50;;;0.91;52.12
68654;BME280;55636;51.108;13.622;2024-01-15T04:55:34;98360.72;;;0.92;52.00
68654;BME280;55636;51.108;13.622;2024-01-15T04:56:37;98366.16;;;0.92;51.92
68654;BME280;55636;51.108;13.622;2024-01-15T04:57:39;98364.00;;;0.94;51.87
68654;BME280;55636;51.108;13.622;2024-01-15T04:58:42;98367.81;;;0.93;51.97
68654;BME280;55636;51.108;13.622;2024-01-15T04:59:44;98364.00;;;0.94;51.90
68654;BME280;55636;51.108;13.622;2024-01-15T05:00:47;98365.66;;;0.96;51.94
68654;BME280;55636;51.108;13.622;2024-01-15T05:01:49;98371.09;;;0.96;51.70
68654;BME280;55636;51.108;13.622;2024-01-15T05:02:51;98358.25;;;0.91;51.93
68654;BME280;55636;51.108;13.622;2024-01-15T05:03:54;98359.91;;;0.92;51.87
68654;BME280;55636;51.108;13.622;2024-01-15T05:05:01;98366.41;;;0.91;51.83
68654;BME280;55636;51.108;13.622;2024-01-15T05:06:04;98365.34;;;0.92;51.77
68654;BME280;55636;51.108;13.622;2024-01-15T05:07:06;98360.97;;;0.91;51.90
68654;BME280;55636;51.108;13.622;2024-01-15T05:08:09;98366.66;;;0.89;51.76
68654;BME280;55636;51.108;13.622;2024-01-15T05:09:12;98358.72;;;0.88;52.02
68654;BME280;55636;51.108;13.622;2024-01-15T05:10:15;98376.94;;;0.87;51.77
68654;BME280;55636;51.108;13.622;2024-01-15T05:11:18;98366.88;;;0.88;51.84
68654;BME280;55636;51.108;13.622;2024-01-15T05:12:20;98371.84;;;0.91;52.01
68654;BME280;55636;51.108;13.622;2024-01-15T05:13:22;98365.56;;;0.90;51.96
68654;BME280;55636;51.108;13.622;2024-01-15T05:14:25;98372.09;;;0.89;51.98
68654;BME280;55636;51.108;13.622;2024-01-15T05:15:27;98370.44;;;0.88;52.06
68654;BME280;55636;51.108;13.622;2024-01-15T05:16:29;98378.09;;;0.91;52.10
68654;BME280;55636;51.108;13.622;2024-01-15T05:17:32;98381.06;;;0.90;52.00
68654;BME280;55636;51.108;13.622;2024-01-15T05:18:34;98386.25;;;0.91;51.97
68654;BME280;55636;51.108;13.622;2024-01-15T05:19:37;98371.84;;;0.91;52.13
68654;BME280;55636;51.108;13.622;2024-01-15T05:20:39;98378.34;;;0.90;52.00
68654;BME280;55636;51.108;13.622;2024-01-15T05:21:42;98366.41;;;0.91;52.05
68654;BME280;55636;51.108;13.622;2024-01-15T05:22:44;98375.38;;;0.91;51.98
68654;BME280;55636;51.108;13.622;2024-01-15T05:23:46;98375.13;;;0.93;51.88
68654;BME280;55636;51.108;13.622;2024-01-15T05:24:49;98373.50;;;0.92;51.85
68654;BME280;55636;51.108;13.622;2024-01-15T05:25:51;98377.03;;;0.92;51.84
68654;BME280;55636;51.108;13.622;2024-01-15T05:26:54;98380.81;;;0.91;52.07
68654;BME280;55636;51.108;13.622;2024-01-15T05:27:56;98377.03;;;0.92;52.09
68654;BME280;55636;51.108;13.622;2024-01-15T05:28:59;98374.31;;;0.92;52.00
68654;BME280;55636;51.108;13.622;2024-01-15T05:30:01;98366.16;;;0.92;51.93
68654;BME280;55636;51.108;13.622;2024-01-15T05:31:04;98375.97;;;0.93;51.83
68654;BME280;55636;51.108;13.622;2024-01-15T05:32:06;98373.25;;;0.93;51.83